Time;durP1;ratioP1;P1;durP2;ratioP2;P2;SDS_P1;SDS_P2;PMS_P1;PMS_P2;Temp;Humidity;BMP_temperature;BMP_pressure;BME280_temperature;BME280_humidity;BME280_pressure;Samples;Min_cycle;Max_cycle;Signal;HPM_P1;HPM_P2
2021/08/02 00:00:51;;;;;;;6.57;3.05;;;15.10;99.90;;;;;;5099181;28;20028;-71
2021/08/02 00:03:28;;;;;;;8.20;3.30;;;15.10;99.90;;;;;;5099041;28;20028;-71
2021/08/02 00:05:56;;;;;;;4.28;2.83;;;15.10;99.90;;;;;;5081017;28;20380;-71
2021/08/02 00:08:23;;;;;;;7.53;3.70;;;14.90;99.90;;;;;;5098869;28;20024;-71
2021/08/02 00:10:51;;;;;;;4.63;3.33;;;15.00;99.90;;;;;;5099105;28;20192;-71
2021/08/02 00:13:30;;;;;;;4.25;2.67;;;15.10;99.90;;;;;;5098973;28;20031;-71
2021/08/02 00:16:03;;;;;;;2.97;2.67;;;15.20;99.90;;;;;;5098861;28;20024;-71
2021/08/02 00:18:30;;;;;;;3.13;2.85;;;15.10;99.90;;;;;;5099127;28;20024;-71
2021/08/02 00:21:00;;;;;;;4.50;2.97;;;14.90;99.90;;;;;;5098975;28;20019;-71
2021/08/02 00:23:26;;;;;;;3.05;2.72;;;15.20;99.90;;;;;;5098633;28;20016;-71
2021/08/02 00:25:54;;;;;;;3.38;3.00;;;15.10;99.90;;;;;;5098697;28;20012;-71
2021/08/02 00:28:21;;;;;;;3.65;3.00;;;15.30;99.90;;;;;;5098669;28;20105;-71
2021/08/02 00:30:47;;;;;;;4.70;2.90;;;15.30;99.90;;;;;;5098491;28;20028;-71
2021/08/02 00:33:13;;;;;;;7.05;3.80;;;15.20;99.90;;;;;;5107121;28;20392;-71
2021/08/02 00:36:20;;;;;;;3.33;3.03;;;15.40;99.90;;;;;;5098614;28;20081;-71
2021/08/02 00:38:49;;;;;;;3.78;2.83;;;15.40;99.90;;;;;;5098355;28;20067;-71
2021/08/02 00:41:18;;;;;;;3.55;2.72;;;15.40;99.90;;;;;;5098420;28;20024;-71
2021/08/02 00:44:05;;;;;;;6.53;3.20;;;15.40;99.90;;;;;;5098537;28;20052;-71
2021/08/02 00:46:40;;;;;;;3.45;2.95;;;15.30;99.90;;;;;;5098672;28;20082;-71
2021/08/02 00:49:10;;;;;;;3.20;2.72;;;15.30;99.90;;;;;;5098252;28;20395;-71
2021/08/02 00:51:51;;;;;;;7.10;3.30;;;15.40;99.90;;;;;;5079749;28;20024;-71
2021/08/02 00:54:20;;;;;;;7.47;3.50;;;15.30;99.90;;;;;;5098334;28;20028;-71
2021/08/02 00:56:48;;;;;;;9.27;4.30;;;15.40;99.90;;;;;;5098155;28;20028;-71
2021/08/02 00:59:14;;;;;;;4.80;3.42;;;15.50;99.90;;;;;;5098251;28;20024;-71
2021/08/02 01:01:43;;;;;;;4.80;2.90;;;15.50;99.90;;;;;;5098155;28;20167;-71
2021/08/02 01:04:11;;;;;;;5.32;3.67;;;15.60;99.90;;;;;;5098151;28;20100;-71
2021/08/02 01:06:38;;;;;;;5.05;3.80;;;15.30;99.90;;;;;;5097700;28;20047;-71
2021/08/02 01:09:06;;;;;;;5.15;3.10;;;15.50;99.90;;;;;;5097813;28;20450;-71
2021/08/02 01:11:33;;;;;;;3.25;2.92;;;15.50;99.90;;;;;;5097836;28;20035;-71
2021/08/02 01:14:04;;;;;;;6.22;3.72;;;15.40;99.90;;;;;;5098103;28;20020;-71
2021/08/02 01:16:32;;;;;;;3.97;3.40;;;15.70;99.90;;;;;;5097937;28;20024;-71
2021/08/02 01:18:59;;;;;;;4.43;3.30;;;15.50;99.90;;;;;;5097805;28;20028;-71
2021/08/02 01:21:25;;;;;;;3.33;2.90;;;15.50;99.90;;;;;;5097599;28;20438;-71
2021/08/02 01:23:52;;;;;;;4.53;3.03;;;15.50;99.90;;;;;;5097453;28;20012;-71
2021/08/02 01:26:42;;;;;;;3.45;2.78;;;15.20;99.90;;;;;;5097556;28;20065;-71
2021/08/02 01:29:46;;;;;;;3.50;2.88;;;15.70;99.90;;;;;;5057255;28;20120;-71
2021/08/02 01:32:16;;;;;;;3.05;2.63;;;15.60;99.90;;;;;;5057698;28;20050;-71
2021/08/02 01:34:43;;;;;;;5.50;3.17;;;15.40;99.90;;;;;;5057155;28;20020;-71
2021/08/02 01:37:10;;;;;;;3.13;2.83;;;15.50;99.90;;;;;;5057033;28;20032;-71
2021/08/02 01:39:36;;;;;;;4.88;3.05;;;15.40;99.90;;;;;;5056919;28;20021;-71
2021/08/02 01:42:03;;;;;;;3.45;3.00;;;15.50;99.90;;;;;;5057340;28;20021;-71
2021/08/02 01:44:29;;;;;;;4.78;2.40;;;15.50;99.90;;;;;;5056604;28;20493;-71
2021/08/02 01:47:02;;;;;;;5.20;3.00;;;15.50;99.90;;;;;;5056993;28;20090;-71
2021/08/02 01:49:38;;;;;;;3.58;2.72;;;15.50;99.90;;;;;;5057149;28;20028;-71
2021/08/02 01:52:13;;;;;;;2.60;2.28;;;15.40;99.90;;;;;;5056700;28;20075;-71
2021/08/02 01:54:45;;;;;;;2.60;2.40;;;15.60;99.90;;;;;;5056925;28;20053;-71
2021/08/02 01:57:34;;;;;;;6.25;3.55;;;15.50;99.90;;;;;;5056671;28;20021;-71
2021/08/02 02:00:12;;;;;;;5.53;3.40;;;15.30;99.90;;;;;;5056966;28;20021;-71
2021/08/02 02:02:42;;;;;;;3.72;3.03;;;15.30;99.90;;;;;;5056984;28;20021;-71
2021/08/02 02:05:16;;;;;;;5.47;3.13;;;15.40;99.90;;;;;;5056640;28;20025;-71
2021/08/02 02:07:49;;;;;;;4.68;3.35;;;15.50;99.90;;;;;;5056520;28;20029;-71
2021/08/02 02:10:19;;;;;;;4.30;2.83;;;15.10;99.90;;;;;;5056494;28;20099;-71
2021/08/02 02:12:48;;;;;;;2.97;2.75;;;15.20;99.90;;;;;;5056679;28;20040;-71
2021/08/02 02:15:15;;;;;;;3.08;2.78;;;15.20;99.90;;;;;;5055216;28;20021;-71
2021/08/02 02:17:42;;;;;;;5.30;2.90;;;15.50;99.90;;;;;;5056532;28;20029;-71
2021/08/02 02:20:09;;;;;;;2.75;2.55;;;15.10;99.90;;;;;;5056642;28;20021;-71
2021/08/02 02:22:37;;;;;;;3.20;2.90;;;15.30;99.90;;;;;;5056361;28;20021;-71
2021/08/02 02:25:06;;;;;;;2.80;2.60;;;15.40;99.90;;;;;;5056487;28;20017;-71
2021/08/02 02:27:33;;;;;;;3.10;2.80;;;15.10;99.90;;;;;;5075980;28;20412;-71
2021/08/02 02:30:02;;;;;;;4.55;3.17;;;15.10;99.90;;;;;;5096996;28;20024;-71
2021/08/02 02:32:30;;;;;;;3.38;2.83;;;15.40;99.90;;;;;;5105136;28;20020;-71
2021/08/02 02:34:57;;;;;;;3.47;2.85;;;15.30;99.90;;;;;;5096601;28;20024;-71
2021/08/02 02:37:24;;;;;;;4.47;2.85;;;15.30;99.90;;;;;;5096333;28;20825;-71
2021/08/02 02:39:53;;;;;;;4.40;3.03;;;15.30;99.90;;;;;;5096641;28;20070;-71
2021/08/02 02:42:20;;;;;;;2.85;2.58;;;15.30;99.90;;;;;;5096407;28;20020;-71
2021/08/02 02:44:48;;;;;;;5.65;3.47;;;15.30;99.90;;;;;;5096802;28;20016;-71
2021/08/02 02:47:14;;;;;;;3.67;2.90;;;15.20;99.90;;;;;;5096502;28;20024;-71
2021/08/02 02:49:40;;;;;;;6.20;4.25;;;15.20;99.90;;;;;;5096844;28;20017;-71
2021/08/02 02:52:07;;;;;;;3.67;3.38;;;15.30;99.90;;;;;;5096335;28;20028;-71
2021/08/02 02:54:34;;;;;;;7.03;3.60;;;15.00;99.90;;;;;;5097915;28;20020;-71
2021/08/02 02:57:01;;;;;;;3.75;3.15;;;14.90;99.90;;;;;;5100550;28;20026;-71
2021/08/02 02:59:27;;;;;;;5.65;3.22;;;15.10;99.90;;;;;;5100603;28;20542;-71
2021/08/02 03:01:54;;;;;;;3.28;3.03;;;15.10;99.90;;;;;;5100380;28;20058;-71
2021/08/02 03:04:25;;;;;;;3.58;2.63;;;15.20;99.90;;;;;;5100379;28;20023;-71
2021/08/02 03:06:54;;;;;;;5.75;3.75;;;15.00;99.90;;;;;;5100131;28;20024;-71
2021/08/02 03:09:23;;;;;;;4.18;3.08;;;15.30;99.90;;;;;;5081872;28;20074;-71
2021/08/02 03:11:48;;;;;;;3.97;2.80;;;15.00;99.90;;;;;;5100155;28;20476;-71
2021/08/02 03:14:18;;;;;;;3.47;3.13;;;15.20;99.90;;;;;;5100371;28;20076;-71
2021/08/02 03:16:44;;;;;;;3.13;2.85;;;15.30;99.90;;;;;;5100238;28;20036;-71
2021/08/02 03:19:10;;;;;;;3.88;3.30;;;15.30;99.90;;;;;;5100202;28;20066;-71
2021/08/02 03:21:36;;;;;;;4.55;3.05;;;15.20;99.90;;;;;;5099518;28;20024;-71
2021/08/02 03:24:17;;;;;;;4.60;3.70;;;15.00;99.90;;;;;;5100073;28;20047;-71
2021/08/02 03:26:55;;;;;;;6.20;2.83;;;15.30;99.90;;;;;;5099712;28;20040;-71
2021/08/02 03:29:34;;;;;;;5.38;3.63;;;15.40;99.90;;;;;;5099918;28;20026;-71
2021/08/02 03:32:10;;;;;;;4.13;2.97;;;15.30;99.90;;;;;;5105642;28;20024;-71
2021/08/02 03:34:38;;;;;;;4.07;3.30;;;15.30;99.90;;;;;;5101752;28;20048;-71
2021/08/02 03:37:09;;;;;;;3.60;3.15;;;15.40;99.90;;;;;;5099735;28;20081;-71
2021/08/02 03:39:35;;;;;;;4.38;3.35;;;15.20;99.90;;;;;;5099579;28;20077;-71
2021/08/02 03:42:03;;;;;;;3.55;2.90;;;15.40;99.90;;;;;;5099860;28;20396;-71
2021/08/02 03:44:31;;;;;;;4.35;3.45;;;15.20;99.90;;;;;;5099798;28;20515;-71
2021/08/02 03:46:57;;;;;;;4.22;2.90;;;15.20;99.90;;;;;;5099614;28;20476;-71
2021/08/02 03:49:23;;;;;;;4.38;3.88;;;15.40;99.90;;;;;;5099658;28;20103;-71
2021/08/02 03:51:57;;;;;;;3.25;2.95;;;15.30;99.90;;;;;;5099329;28;20063;-71
2021/08/02 03:54:26;;;;;;;8.20;3.63;;;15.30;99.90;;;;;;5081206;28;20138;-71
2021/08/02 03:56:53;;;;;;;7.13;4.43;;;15.30;99.90;;;;;;5099342;28;20032;-71
2021/08/02 03:59:18;;;;;;;5.10;3.63;;;15.40;99.90;;;;;;5081089;28;20028;-71
2021/08/02 04:01:46;;;;;;;3.85;3.50;;;15.10;99.90;;;;;;5099209;28;20030;-71
2021/08/02 04:04:12;;;;;;;3.92;3.20;;;15.10;99.90;;;;;;5099420;28;20424;-71
2021/08/02 04:06:39;;;;;;;4.65;2.90;;;15.20;99.90;;;;;;5098348;28;20067;-71
2021/08/02 04:09:09;;;;;;;3.80;3.13;;;15.40;99.90;;;;;;5080883;28;20445;-71
2021/08/02 04:11:36;;;;;;;3.97;3.17;;;15.20;99.90;;;;;;5080860;28;20462;-71
2021/08/02 04:14:04;;;;;;;5.32;3.63;;;15.30;99.90;;;;;;5099344;28;20020;-71
2021/08/02 04:16:30;;;;;;;4.07;3.25;;;15.10;99.90;;;;;;5099115;28;20107;-71
2021/08/02 04:18:56;;;;;;;4.18;3.55;;;15.30;99.90;;;;;;5098949;28;20031;-71
2021/08/02 04:21:22;;;;;;;3.78;3.47;;;15.50;99.90;;;;;;5098401;28;20016;-71
2021/08/02 04:23:48;;;;;;;4.40;3.42;;;15.40;99.90;;;;;;5080826;28;20027;-71
2021/08/02 04:26:14;;;;;;;4.40;3.55;;;15.30;99.90;;;;;;5098671;28;20019;-71
2021/08/02 04:28:44;;;;;;;7.70;3.40;;;15.50;99.90;;;;;;5098519;28;20043;-71
2021/08/02 04:31:10;;;;;;;4.72;3.35;;;15.30;99.90;;;;;;5080431;28;20085;-71
2021/08/02 04:33:37;;;;;;;6.40;3.42;;;15.30;99.90;;;;;;5107125;28;20426;-71
2021/08/02 04:36:04;;;;;;;4.35;3.63;;;15.30;99.90;;;;;;5080381;28;20032;-71
2021/08/02 04:38:30;;;;;;;4.20;3.00;;;15.30;99.90;;;;;;5080219;28;20024;-71
2021/08/02 04:40:56;;;;;;;4.05;3.15;;;15.40;99.90;;;;;;5098429;28;20020;-71
2021/08/02 04:43:23;;;;;;;6.85;4.28;;;15.30;99.90;;;;;;5098566;28;20073;-71
2021/08/02 04:45:49;;;;;;;4.65;3.67;;;15.30;99.90;;;;;;5098305;28;20177;-71
2021/08/02 04:48:15;;;;;;;5.15;3.55;;;15.30;99.90;;;;;;5098589;28;20039;-71
2021/08/02 04:50:43;;;;;;;3.63;3.33;;;15.30;99.90;;;;;;5098200;28;20032;-71
2021/08/02 04:53:10;;;;;;;5.80;3.60;;;15.40;99.90;;;;;;5098057;28;20096;-71
2021/08/02 04:55:36;;;;;;;3.97;3.58;;;15.30;99.90;;;;;;5098172;28;20061;-71
2021/08/02 04:58:02;;;;;;;8.57;4.82;;;15.40;99.90;;;;;;5098445;28;20387;-71
2021/08/02 05:00:28;;;;;;;6.15;3.47;;;15.60;99.90;;;;;;5098178;28;20039;-71
2021/08/02 05:02:54;;;;;;;4.85;3.13;;;15.40;99.90;;;;;;5098171;28;20024;-71
2021/08/02 05:05:20;;;;;;;4.93;3.40;;;15.30;99.90;;;;;;5079713;28;20020;-71
2021/08/02 05:07:45;;;;;;;5.35;3.40;;;15.50;99.90;;;;;;5098002;28;20020;-71
2021/08/02 05:10:12;;;;;;;7.50;4.00;;;;;;;;;;5097715;28;20098;-71
2021/08/02 05:12:38;;;;;;;4.90;3.20;;;15.40;99.90;;;;;;5097955;28;20024;-71
2021/08/02 05:15:08;;;;;;;5.38;3.72;;;15.40;99.90;;;;;;5097764;28;20077;-71
2021/08/02 05:17:34;;;;;;;7.97;3.83;;;15.60;99.90;;;;;;5097143;28;20020;-71
2021/08/02 05:20:00;;;;;;;4.35;3.05;;;15.50;99.90;;;;;;5079386;28;20030;-71
2021/08/02 05:22:26;;;;;;;5.78;3.47;;;15.50;99.90;;;;;;5097647;28;20020;-71
2021/08/02 05:24:52;;;;;;;3.72;3.40;;;15.60;99.90;;;;;;5097527;28;20024;-71
2021/08/02 05:27:18;;;;;;;3.15;2.65;;;;;;;;;;5097412;28;20048;-71
2021/08/02 05:29:44;;;;;;;4.28;2.92;;;15.50;99.90;;;;;;5097413;28;20034;-71
2021/08/02 05:32:10;;;;;;;11.95;3.67;;;15.60;99.90;;;;;;5104458;28;20098;-71
2021/08/02 05:34:40;;;;;;;6.63;4.05;;;15.50;99.90;;;;;;5098671;28;20456;-71
2021/08/02 05:37:09;;;;;;;6.00;3.33;;;15.80;99.90;;;;;;5097347;28;20073;-71
2021/08/02 05:39:36;;;;;;;4.22;3.08;;;15.80;99.90;;;;;;5079217;28;20024;-71
2021/08/02 05:42:02;;;;;;;4.95;3.53;;;16.00;99.90;;;;;;5097554;28;20416;-71
2021/08/02 05:44:27;;;;;;;4.47;3.20;;;15.80;99.90;;;;;;5097496;28;20109;-71
2021/08/02 05:46:53;;;;;;;3.42;2.75;;;15.90;99.90;;;;;;5079034;28;20506;-71
2021/08/02 05:49:19;;;;;;;4.30;2.75;;;15.80;99.90;;;;;;5097256;28;20035;-71
2021/08/02 05:51:46;;;;;;;7.93;3.40;;;15.90;99.90;;;;;;5078752;28;20020;-71
2021/08/02 05:54:12;;;;;;;3.92;2.80;;;16.20;99.90;;;;;;5097154;28;20024;-71
2021/08/02 05:56:38;;;;;;;4.70;3.15;;;16.00;99.90;;;;;;5097356;28;20434;-71
2021/08/02 05:59:04;;;;;;;4.53;3.42;;;16.10;99.90;;;;;;5096885;28;20032;-71
2021/08/02 06:01:30;;;;;;;3.00;2.60;;;16.50;99.90;;;;;;5097198;28;20095;-71
2021/08/02 06:03:56;;;;;;;5.20;2.60;;;16.40;99.90;;;;;;5097312;28;20091;-71
2021/08/02 06:06:22;;;;;;;3.92;3.28;;;16.50;99.90;;;;;;5097032;28;20075;-71
2021/08/02 06:08:47;;;;;;;4.05;3.22;;;16.60;99.90;;;;;;5096816;28;20031;-71
2021/08/02 06:11:13;;;;;;;3.60;3.10;;;16.60;99.90;;;;;;5078621;28;20028;-71
2021/08/02 06:13:39;;;;;;;4.95;3.15;;;16.80;99.90;;;;;;5097152;28;20021;-71
2021/08/02 06:16:05;;;;;;;2.65;2.42;;;16.80;99.90;;;;;;5078664;28;20056;-71
2021/08/02 06:18:31;;;;;;;3.05;2.75;;;16.70;99.90;;;;;;5078750;28;20546;-71
2021/08/02 06:20:57;;;;;;;5.35;3.42;;;17.00;99.90;;;;;;5097154;28;20427;-71
2021/08/02 06:23:23;;;;;;;5.80;3.50;;;16.80;99.90;;;;;;5096510;28;20079;-71
2021/08/02 06:25:49;;;;;;;4.40;3.15;;;17.20;99.90;;;;;;5096753;28;20024;-71
2021/08/02 06:28:15;;;;;;;3.50;3.17;;;17.10;99.90;;;;;;5096556;28;20571;-71
2021/08/02 06:30:41;;;;;;;5.38;3.38;;;;;;;;;;5096605;28;20028;-71
2021/08/02 06:33:07;;;;;;;3.78;3.33;;;17.40;99.90;;;;;;5104889;28;20028;-72
2021/08/02 06:35:36;;;;;;;3.25;2.90;;;17.90;99.90;;;;;;5096713;28;20503;-71
2021/08/02 06:38:02;;;;;;;7.20;3.58;;;17.00;99.90;;;;;;5096482;28;20053;-72
2021/08/02 06:40:28;;;;;;;3.92;3.53;;;17.40;99.90;;;;;;5096832;28;20028;-71
2021/08/02 06:42:54;;;;;;;7.97;4.05;;;17.10;99.90;;;;;;5087593;28;20032;-71
2021/08/02 06:45:20;;;;;;;5.03;3.30;;;17.30;99.90;;;;;;5085312;28;20032;-71
2021/08/02 06:47:47;;;;;;;3.85;3.45;;;17.20;99.90;;;;;;5096722;28;20029;-71
2021/08/02 06:50:12;;;;;;;3.33;2.97;;;17.30;99.90;;;;;;5095999;28;20028;-71
2021/08/02 06:52:38;;;;;;;6.32;3.60;;;17.20;99.90;;;;;;5096387;28;20480;-71
2021/08/02 06:55:05;;;;;;;4.38;3.97;;;17.20;99.90;;;;;;5096433;28;20032;-71
2021/08/02 06:57:31;;;;;;;3.80;3.40;;;17.20;99.90;;;;;;5096082;28;20499;-71
2021/08/02 06:59:57;;;;;;;3.70;3.30;;;17.10;99.90;;;;;;5096442;28;20388;-71
2021/08/02 07:02:24;;;;;;;7.15;4.43;;;17.10;99.90;;;;;;5096451;28;20024;-71
2021/08/02 07:04:50;;;;;;;4.18;3.33;;;17.20;99.90;;;;;;5095926;28;20103;-71
2021/08/02 07:07:16;;;;;;;3.20;2.50;;;17.10;99.90;;;;;;5096269;28;20044;-72
2021/08/02 07:09:42;;;;;;;5.82;2.92;;;17.20;99.90;;;;;;5096117;28;20023;-70
2021/08/02 07:12:08;;;;;;;4.50;3.10;;;17.30;99.90;;;;;;5077970;28;20373;-71
2021/08/02 07:14:34;;;;;;;4.32;3.38;;;17.50;99.90;;;;;;5096288;28;20520;-71
2021/08/02 07:17:00;;;;;;;3.97;3.60;;;17.20;99.90;;;;;;5096378;28;20026;-71
2021/08/02 07:19:25;;;;;;;4.72;3.08;;;17.30;99.90;;;;;;5095606;28;20028;-71
2021/08/02 07:21:51;;;;;;;4.70;3.42;;;17.40;99.90;;;;;;5096065;28;20099;-71
2021/08/02 07:24:17;;;;;;;3.78;3.28;;;17.30;99.90;;;;;;5095941;28;20520;-71
2021/08/02 07:26:43;;;;;;;2.95;2.65;;;17.60;99.90;;;;;;5095620;28;20032;-71
2021/08/02 07:29:09;;;;;;;6.35;3.45;;;17.60;99.90;;;;;;5078419;28;20039;-70
2021/08/02 07:31:35;;;;;;;6.50;2.72;;;17.60;99.90;;;;;;5098137;28;20020;-65
2021/08/02 07:34:01;;;;;;;6.18;2.47;;;17.50;99.90;;;;;;5101063;28;20024;-71
2021/08/02 07:36:26;;;;;;;3.10;2.63;;;17.50;99.90;;;;;;5095507;28;20070;-71
2021/08/02 07:38:52;;;;;;;4.82;3.20;;;17.60;99.90;;;;;;5095142;28;20093;-66
2021/08/02 07:41:19;;;;;;;5.63;3.00;;;17.80;99.90;;;;;;5096437;28;20020;-71
2021/08/02 07:43:44;;;;;;;3.35;2.90;;;17.80;99.90;;;;;;5081396;28;20472;-71
2021/08/02 07:46:12;;;;;;;3.03;2.50;;;17.90;99.90;;;;;;5099698;28;20165;-70
2021/08/02 07:48:39;;;;;;;3.35;3.03;;;18.00;99.90;;;;;;5099611;28;20487;-71
2021/08/02 07:51:05;;;;;;;4.13;2.78;;;18.20;99.90;;;;;;5081353;28;20035;-71
2021/08/02 07:53:31;;;;;;;3.75;3.33;;;18.20;99.90;;;;;;5099496;28;20024;-71
2021/08/02 07:55:57;;;;;;;2.85;2.42;;;18.30;99.90;;;;;;5099631;28;20079;-71
2021/08/02 07:58:23;;;;;;;4.07;3.15;;;18.20;99.90;;;;;;5099430;28;20024;-71
2021/08/02 08:00:49;;;;;;;3.20;2.90;;;18.40;99.90;;;;;;5099535;28;20121;-71
2021/08/02 08:03:17;;;;;;;4.70;3.33;;;18.40;99.90;;;;;;5099391;28;20024;-71
2021/08/02 08:05:43;;;;;;;5.93;3.67;;;18.50;99.90;;;;;;5099521;28;20078;-71
2021/08/02 08:08:09;;;;;;;7.75;3.35;;;18.70;99.90;;;;;;5098948;28;20024;-71
2021/08/02 08:10:35;;;;;;;5.20;3.90;;;18.70;99.90;;;;;;5099312;28;20028;-71
2021/08/02 08:13:01;;;;;;;5.25;3.70;;;18.80;99.90;;;;;;5099264;28;20028;-70
2021/08/02 08:15:27;;;;;;;4.95;3.58;;;19.00;99.90;;;;;;5099373;28;20039;-70
2021/08/02 08:17:54;;;;;;;4.72;3.38;;;19.30;99.90;;;;;;5080733;28;20032;-70
2021/08/02 08:20:23;;;;;;;4.40;3.30;;;19.50;99.90;;;;;;5080901;28;20031;-70
2021/08/02 08:22:49;;;;;;;5.57;3.30;;;19.70;99.90;;;;;;5098626;28;20024;-70
2021/08/02 08:25:15;;;;;;;5.43;4.07;;;;;;;;;;5098864;28;20020;-71
2021/08/02 08:27:44;;;;;;;4.47;3.40;;;;;;;;;;5098659;28;20123;-70
2021/08/02 08:30:10;;;;;;;4.80;3.78;;;20.80;99.90;;;;;;5098892;28;20032;-70
2021/08/02 08:32:39;;;;;;;6.32;4.05;;;;;;;;;;5107301;28;20027;-71
2021/08/02 08:35:06;;;;;;;5.35;3.65;;;21.20;99.90;;;;;;5098880;28;20034;-70
2021/08/02 08:37:32;;;;;;;4.22;3.35;;;21.60;99.90;;;;;;5098565;28;20055;-71
2021/08/02 08:39:58;;;;;;;4.85;3.15;;;21.80;99.90;;;;;;5098749;28;20012;-70
2021/08/02 08:42:24;;;;;;;5.35;3.25;;;22.10;99.90;;;;;;5098454;28;20434;-71
2021/08/02 08:44:49;;;;;;;4.57;3.40;;;22.50;99.90;;;;;;5098673;28;20016;-71
2021/08/02 08:47:15;;;;;;;4.65;3.38;;;22.50;99.90;;;;;;5098444;28;20024;-71
2021/08/02 08:49:42;;;;;;;4.15;3.25;;;22.70;99.90;;;;;;5098574;28;20021;-71
2021/08/02 08:52:09;;;;;;;3.80;2.80;;;22.80;99.90;;;;;;5098052;28;20031;-71
2021/08/02 08:54:40;;;;;;;3.78;3.08;;;22.70;99.90;;;;;;5098317;28;20027;-71
2021/08/02 08:57:11;;;;;;;4.13;3.10;;;22.50;99.90;;;;;;5098208;28;20024;-71
2021/08/02 08:59:47;;;;;;;6.03;3.25;;;22.10;99.90;;;;;;5098120;28;20024;-70
2021/08/02 09:02:13;;;;;;;6.03;3.03;;;22.10;99.90;;;;;;5098048;28;20028;-71
2021/08/02 09:04:40;;;;;;;4.32;2.28;;;22.10;99.90;;;;;;5098313;28;20572;-71
2021/08/02 09:07:06;;;;;;;3.45;2.58;;;22.40;99.90;;;;;;5097723;28;20081;-70
2021/08/02 09:09:35;;;;;;;3.42;2.67;;;22.90;99.90;;;;;;5098055;28;20024;-71
2021/08/02 09:12:18;;;;;;;2.88;2.58;;;23.50;99.90;;;;;;5079733;28;20020;-70
2021/08/02 09:14:58;;;;;;;2.50;1.90;;;23.70;99.90;;;;;;5097955;28;20047;-71
2021/08/02 09:17:31;;;;;;;3.10;2.33;;;23.80;99.90;;;;;;5097845;28;20027;-70
2021/08/02 09:19:57;;;;;;;3.40;2.25;;;23.70;99.90;;;;;;5097640;28;20020;-71
2021/08/02 09:22:31;;;;;;;5.85;2.65;;;24.00;99.90;;;;;;5097675;28;20426;-71
2021/08/02 09:25:10;;;;;;;2.88;2.55;;;23.90;99.90;;;;;;5097741;28;20020;-71
2021/08/02 09:27:37;;;;;;;2.20;1.75;;;23.60;99.90;;;;;;5079234;28;20106;-70
2021/08/02 09:30:13;;;;;;;2.13;1.60;;;23.50;99.90;;;;;;5079415;28;20503;-71
2021/08/02 09:32:56;;;;;;;3.03;1.70;;;23.30;99.90;;;;;;5078469;28;20071;-70
2021/08/02 09:35:40;;;;;;;4.72;1.98;;;22.80;99.90;;;;;;5097497;28;20059;-70
2021/08/02 09:38:07;;;;;;;3.30;1.80;;;22.40;99.90;;;;;;5097391;28;20111;-71
2021/08/02 09:40:39;;;;;;;3.03;2.00;;;22.40;99.90;;;;;;5097394;28;20022;-70
2021/08/02 09:43:05;;;;;;;2.63;1.77;;;22.50;99.90;;;;;;5097369;28;20476;-70
2021/08/02 09:46:07;;;;;;;3.60;2.17;;;22.50;99.90;;;;;;5097518;28;20012;-70
2021/08/02 09:48:44;;;;;;;4.05;2.13;;;22.40;99.90;;;;;;5054848;28;20029;-70
2021/08/02 09:51:13;;;;;;;2.40;1.65;;;22.30;99.90;;;;;;5091838;28;20040;-70
2021/08/02 09:53:44;;;;;;;6.40;2.67;;;22.10;99.90;;;;;;5097020;28;20503;-70
2021/08/02 09:56:15;;;;;;;3.33;1.55;;;22.10;99.90;;;;;;5097234;28;20024;-70
2021/08/02 09:58:42;;;;;;;3.05;2.05;;;22.20;99.90;;;;;;5096963;28;20507;-71
2021/08/02 10:01:11;;;;;;;2.90;1.80;;;22.20;99.90;;;;;;5097287;28;20012;-70
2021/08/02 10:03:38;;;;;;;2.85;2.15;;;22.10;99.90;;;;;;5096854;28;20028;-70
2021/08/02 10:06:05;;;;;;;4.47;2.20;;;22.10;99.90;;;;;;5078423;28;20016;-70
2021/08/02 10:08:34;;;;;;;2.53;1.50;;;21.80;99.90;;;;;;5097004;28;20020;-70
2021/08/02 10:11:00;;;;;;;2.53;2.10;;;21.80;99.90;;;;;;5097293;28;20051;-70
2021/08/02 10:13:29;;;;;;;2.83;1.70;;;21.90;99.90;;;;;;5096844;28;20395;-70
2021/08/02 10:15:57;;;;;;;2.58;2.10;;;21.90;99.90;;;;;;5097061;28;20024;-71
2021/08/02 10:18:28;;;;;;;2.20;1.80;;;21.70;99.90;;;;;;5096717;28;20023;-70
2021/08/02 10:21:11;;;;;;;3.25;2.10;;;21.50;99.90;;;;;;5078782;28;20024;-70
2021/08/02 10:23:38;;;;;;;2.92;2.13;;;21.40;99.90;;;;;;5078718;28;20028;-70
2021/08/02 10:26:17;;;;;;;4.03;2.30;;;21.20;99.90;;;;;;5078530;28;20043;-70
2021/08/02 10:28:55;;;;;;;3.45;2.67;;;21.20;99.90;;;;;;5095846;28;20111;-70
2021/08/02 10:31:21;;;;;;;3.92;2.08;;;21.10;99.90;;;;;;5095679;28;20032;-70
2021/08/02 10:33:47;;;;;;;2.78;2.22;;;21.30;99.90;;;;;;5104626;28;20396;-71
2021/08/02 10:36:20;;;;;;;3.67;2.15;;;21.50;99.90;;;;;;5096432;28;20031;-70
2021/08/02 10:38:51;;;;;;;4.15;2.55;;;21.80;99.90;;;;;;5096603;28;20602;-70
2021/08/02 10:41:29;;;;;;;3.80;2.83;;;22.00;99.90;;;;;;5096774;28;20020;-70
2021/08/02 10:43:55;;;;;;;3.17;2.78;;;22.40;99.90;;;;;;5096541;28;20024;-70
2021/08/02 10:46:24;;;;;;;5.18;2.90;;;22.50;99.90;;;;;;5078525;28;20089;-70
2021/08/02 10:48:53;;;;;;;5.68;2.53;;;22.70;99.90;;;;;;5096472;28;20028;-70
2021/08/02 10:51:21;;;;;;;5.93;2.72;;;22.90;99.90;;;;;;5096481;28;20052;-70
2021/08/02 10:54:01;;;;;;;3.25;2.95;;;23.10;99.90;;;;;;5096390;28;20067;-70
2021/08/02 10:56:28;;;;;;;3.60;2.15;;;23.50;99.90;;;;;;5096559;28;20052;-70
2021/08/02 10:58:56;;;;;;;2.75;2.17;;;23.70;99.90;;;;;;5096299;28;20028;-71
2021/08/02 11:01:26;;;;;;;2.72;2.53;;;23.90;99.90;;;;;;5078204;28;20032;-70
2021/08/02 11:03:56;;;;;;;2.88;2.15;;;24.10;99.90;;;;;;5096285;28;20028;-70
2021/08/02 11:06:22;;;;;;;3.78;2.53;;;24.50;99.90;;;;;;5096340;28;20031;-71
2021/08/02 11:08:53;;;;;;;5.47;3.28;;;24.60;99.90;;;;;;5096348;28;20164;-70
2021/08/02 11:11:26;;;;;;;2.75;2.45;;;24.50;99.90;;;;;;5096380;28;20514;-70
2021/08/02 11:14:04;;;;;;;3.83;2.45;;;24.30;99.90;;;;;;5096297;28;20032;-70
2021/08/02 11:16:36;;;;;;;2.42;2.22;;;24.20;99.90;;;;;;5097555;28;20020;-70
2021/08/02 11:19:06;;;;;;;4.13;2.00;;;24.00;99.90;;;;;;5100159;28;20057;-71
2021/08/02 11:21:32;;;;;;;2.95;2.65;;;24.00;99.90;;;;;;5099803;28;20395;-71
2021/08/02 11:23:57;;;;;;;2.80;2.60;;;24.20;99.90;;;;;;5081893;28;20099;-71
2021/08/02 11:26:23;;;;;;;4.93;1.90;;;24.40;99.90;;;;;;5081428;28;20022;-71
2021/08/02 11:28:54;;;;;;;2.33;1.92;;;24.60;99.90;;;;;;5100064;28;20484;-70
2021/08/02 11:31:25;;;;;;;3.13;2.10;;;24.60;99.90;;;;;;5099567;28;20021;-70
2021/08/02 11:33:51;;;;;;;3.05;1.80;;;24.50;99.90;;;;;;5107943;28;20047;-70
2021/08/02 11:36:20;;;;;;;2.42;2.10;;;24.20;99.90;;;;;;5099610;28;20388;-70
2021/08/02 11:38:48;;;;;;;3.35;1.80;;;23.90;99.90;;;;;;5099739;28;20039;-71
2021/08/02 11:41:27;;;;;;;2.83;2.15;;;23.50;99.90;;;;;;5099618;28;20090;-70
2021/08/02 11:43:53;;;;;;;3.38;1.88;;;23.30;99.90;;;;;;5099624;28;20012;-70
2021/08/02 11:46:20;;;;;;;2.35;1.40;;;23.00;99.90;;;;;;5099892;28;20103;-71
2021/08/02 11:48:46;;;;;;;4.50;1.60;;;22.80;99.90;;;;;;5099558;28;20035;-70
2021/08/02 11:51:13;;;;;;;1.63;1.52;;;22.60;99.90;;;;;;5099532;28;20023;-70
2021/08/02 11:53:39;;;;;;;1.88;1.60;;;22.50;99.90;;;;;;5099381;28;20108;-70
2021/08/02 11:56:06;;;;;;;3.15;1.65;;;22.50;99.90;;;;;;5081314;28;20051;-70
2021/08/02 11:58:39;;;;;;;2.28;1.85;;;22.60;99.90;;;;;;5081048;28;20035;-70
2021/08/02 12:01:05;;;;;;;2.50;1.92;;;22.80;99.90;;;;;;5081230;28;20024;-70
2021/08/02 12:03:31;;;;;;;3.75;2.30;;;22.90;99.90;;;;;;5099338;28;20028;-70
2021/08/02 12:06:04;;;;;;;3.65;1.95;;;23.50;99.90;;;;;;5099420;28;20095;-70
2021/08/02 12:08:30;;;;;;;4.68;2.35;;;24.40;99.90;;;;;;5099311;28;20063;-70
2021/08/02 12:11:01;;;;;;;4.60;2.10;;;25.90;99.90;;;;;;5099469;28;20502;-71
2021/08/02 12:13:44;;;;;;;2.30;1.80;;;26.00;99.90;;;;;;5099336;28;20078;-70
2021/08/02 12:16:12;;;;;;;1.85;1.50;;;26.00;99.90;;;;;;5080807;28;20028;-71
2021/08/02 12:18:38;;;;;;;2.72;1.50;;;25.60;99.90;;;;;;5099075;28;20031;-70
2021/08/02 12:21:24;;;;;;;2.65;1.50;;;25.00;99.90;;;;;;5098777;28;20027;-70
2021/08/02 12:24:05;;;;;;;1.95;1.40;;;24.30;99.90;;;;;;5098845;28;20472;-70
2021/08/02 12:26:31;;;;;;;1.88;1.58;;;23.90;99.90;;;;;;5098585;28;20353;-71
2021/08/02 12:28:57;;;;;;;1.80;1.20;;;23.70;99.90;;;;;;5098626;28;20513;-71
2021/08/02 12:31:23;;;;;;;1.88;1.30;;;23.30;99.90;;;;;;5099024;28;20024;-70
2021/08/02 12:33:51;;;;;;;1.30;1.20;;;23.20;99.90;;;;;;5106896;28;20117;-70
2021/08/02 12:36:19;;;;;;;2.08;1.23;;;23.20;99.90;;;;;;5080275;28;20119;-70
2021/08/02 12:38:50;;;;;;;1.98;1.75;;;23.30;99.90;;;;;;5080357;28;20028;-70
2021/08/02 12:41:17;;;;;;;2.80;1.13;;;23.50;99.90;;;;;;5098712;28;20040;-70
2021/08/02 12:43:44;;;;;;;1.52;1.42;;;23.60;99.90;;;;;;5098624;28;20020;-70
2021/08/02 12:46:11;;;;;;;1.13;1.10;;;23.60;99.90;;;;;;5093651;28;20056;-63
2021/08/02 12:48:38;;;;;;;1.60;1.10;;;23.70;99.90;;;;;;5095391;28;20111;-63
2021/08/02 12:51:05;;;;;;;1.98;1.30;;;23.70;99.90;;;;;;5098073;28;20530;-62
2021/08/02 12:53:31;;;;;;;3.20;1.42;;;23.90;99.90;;;;;;5099540;28;20413;-62
2021/08/02 12:55:57;;;;;;;1.48;1.38;;;23.90;99.90;;;;;;5098574;28;20158;-63